createdAt,value
2018-04-25T00:00:24.683Z,17.58
2018-04-25T00:01:24.852Z,17.54
2018-04-25T00:02:25.032Z,17.48
2018-04-25T00:03:25.460Z,17.38
2018-04-25T00:04:25.391Z,17.38
2018-04-25T00:05:26.381Z,17.40
2018-04-25T00:06:25.739Z,17.21
2018-04-25T00:07:26.020Z,17.26
2018-04-25T00:08:26.083Z,17.08
2018-04-25T00:09:26.275Z,17.07
2018-04-25T00:10:26.437Z,17.08
2018-04-25T00:11:26.617Z,17.04
2018-04-25T00:12:26.927Z,17.01
2018-04-25T00:13:26.960Z,16.98
2018-04-25T00:14:27.138Z,16.98
2018-04-25T00:15:27.300Z,16.98
2018-04-25T00:16:27.473Z,17.06
2018-04-25T00:17:27.645Z,17.08
2018-04-25T00:18:27.809Z,17.19
2018-04-25T00:19:27.975Z,17.08
2018-04-25T00:20:28.144Z,17.23
2018-04-25T00:21:28.314Z,17.21
2018-04-25T00:22:28.483Z,17.12
2018-04-25T00:23:28.652Z,17.07
2018-04-25T00:24:28.863Z,17.22
2018-04-25T00:25:28.993Z,17.19
2018-04-25T00:26:29.167Z,17.21
2018-04-25T00:27:29.336Z,17.21
2018-04-25T00:28:29.508Z,17.21
2018-04-25T00:29:29.675Z,17.08
2018-04-25T00:30:29.887Z,17.08
2018-04-25T00:31:30.019Z,17.04
2018-04-25T00:32:30.191Z,17.07
2018-04-25T00:33:30.358Z,17.16
2018-04-25T00:34:30.524Z,17.00
2018-04-25T00:35:30.695Z,16.94
2018-04-25T00:36:30.865Z,16.97
2018-04-25T00:37:31.026Z,17.06
2018-04-25T00:38:31.197Z,17.06
2018-04-25T00:39:31.366Z,17.06
2018-04-25T00:40:31.533Z,17.08
2018-04-25T00:41:31.702Z,17.07
2018-04-25T00:42:31.864Z,17.03
2018-04-25T00:43:32.034Z,16.93
2018-04-25T00:44:32.279Z,16.94
2018-04-25T00:45:32.374Z,16.88
2018-04-25T00:46:32.545Z,17.00
2018-04-25T00:47:32.718Z,17.04
2018-04-25T00:48:32.922Z,16.91
2018-04-25T00:49:33.049Z,16.96
2018-04-25T00:50:33.243Z,16.93
2018-04-25T00:51:33.387Z,16.91
2018-04-25T00:52:33.555Z,16.89
2018-04-25T00:53:34.273Z,16.97
2018-04-25T00:54:33.885Z,16.81
2018-04-25T00:55:34.055Z,16.75
2018-04-25T00:56:34.219Z,16.81
2018-04-25T00:57:34.389Z,16.73
2018-04-25T00:58:34.560Z,16.75
2018-04-25T00:59:34.732Z,16.68
2018-04-25T01:00:34.904Z,16.64
2018-04-25T01:01:35.069Z,16.60
2018-04-25T01:02:35.235Z,16.63
2018-04-25T01:03:35.408Z,16.66
2018-04-25T01:04:35.572Z,16.66
2018-04-25T01:05:35.746Z,16.67
2018-04-25T01:06:35.913Z,16.71
2018-04-25T01:07:36.080Z,16.70
2018-04-25T01:08:36.249Z,16.75
2018-04-25T01:09:36.417Z,16.76
2018-04-25T01:10:36.591Z,16.76
2018-04-25T01:11:36.752Z,16.64
2018-04-25T01:12:36.913Z,16.70
2018-04-25T01:13:37.085Z,16.66
2018-04-25T01:14:37.244Z,16.56
2018-04-25T01:15:37.417Z,16.57
2018-04-25T01:16:37.580Z,16.52
2018-04-25T01:17:37.748Z,16.50
2018-04-25T01:18:37.913Z,16.63
2018-04-25T01:19:38.087Z,16.56
2018-04-25T01:20:38.253Z,16.49
2018-04-25T01:21:38.427Z,16.48
2018-04-25T01:22:38.590Z,16.42
2018-04-25T01:23:38.754Z,16.41
2018-04-25T01:24:38.928Z,16.30
2018-04-25T01:25:39.101Z,16.35
2018-04-25T01:26:39.272Z,16.28
2018-04-25T01:27:39.438Z,16.41
2018-04-25T01:28:39.618Z,16.25
2018-04-25T01:29:39.785Z,16.31
2018-04-25T01:30:39.966Z,16.30
2018-04-25T01:31:40.141Z,16.42
2018-04-25T01:32:40.297Z,16.38
2018-04-25T01:33:40.464Z,16.31
2018-04-25T01:34:40.636Z,16.42
2018-04-25T01:35:40.801Z,16.30
2018-04-25T01:36:41.097Z,16.33
2018-04-25T01:37:41.168Z,16.35
2018-04-25T01:38:41.334Z,16.31
2018-04-25T01:39:41.499Z,16.39
2018-04-25T01:40:41.672Z,16.34
2018-04-25T01:41:41.834Z,16.34
2018-04-25T01:42:42.005Z,16.38
2018-04-25T01:43:42.179Z,16.38
2018-04-25T01:44:42.353Z,16.38
2018-04-25T01:45:42.521Z,16.41
2018-04-25T01:46:42.690Z,16.41
2018-04-25T01:47:42.870Z,16.39
2018-04-25T01:48:43.040Z,16.41
2018-04-25T01:49:43.194Z,16.43
2018-04-25T01:50:43.365Z,16.39
2018-04-25T01:51:43.529Z,16.30
2018-04-25T01:52:43.699Z,16.38
2018-04-25T01:53:43.865Z,16.33
2018-04-25T01:54:44.038Z,16.39
2018-04-25T01:55:44.203Z,16.38
2018-04-25T01:56:44.370Z,16.38
2018-04-25T01:57:44.538Z,16.27
2018-04-25T01:58:44.714Z,16.28
2018-04-25T01:59:44.884Z,16.14
2018-04-25T02:00:45.053Z,16.07
2018-04-25T02:01:45.215Z,16.00
2018-04-25T02:02:45.388Z,16.05
2018-04-25T02:03:45.567Z,15.96
2018-04-25T02:04:45.737Z,16.02
2018-04-25T02:05:45.910Z,16.01
2018-04-25T02:06:46.068Z,16.04
2018-04-25T02:07:46.237Z,15.90
2018-04-25T02:08:46.411Z,15.82
2018-04-25T02:09:46.580Z,15.86
2018-04-25T02:10:46.742Z,15.97
2018-04-25T02:11:46.915Z,15.97
2018-04-25T02:12:47.116Z,15.96
2018-04-25T02:13:47.283Z,15.92
2018-04-25T02:14:47.456Z,16.01
2018-04-25T02:15:47.620Z,16.01
2018-04-25T02:16:47.792Z,16.01
2018-04-25T02:17:47.954Z,15.97
2018-04-25T02:18:48.125Z,15.93
2018-04-25T02:19:48.304Z,15.86
2018-04-25T02:20:48.478Z,15.94
2018-04-25T02:21:48.641Z,16.02
2018-04-25T02:22:48.811Z,15.94
2018-04-25T02:23:48.983Z,15.89
2018-04-25T02:24:49.157Z,15.93
2018-04-25T02:25:49.325Z,15.96
2018-04-25T02:26:49.498Z,15.84
2018-04-25T02:27:49.666Z,15.80
2018-04-25T02:28:49.836Z,15.80
2018-04-25T02:29:50.010Z,15.75
2018-04-25T02:30:50.184Z,15.90
2018-04-25T02:31:50.354Z,15.80
2018-04-25T02:32:50.524Z,15.80
2018-04-25T02:33:50.696Z,15.76
2018-04-25T02:34:50.862Z,15.78
2018-04-25T02:35:51.038Z,15.71
2018-04-25T02:36:51.192Z,15.74
2018-04-25T02:37:51.364Z,15.83
2018-04-25T02:38:51.532Z,15.65
2018-04-25T02:39:51.698Z,15.75
2018-04-25T02:40:51.867Z,15.62
2018-04-25T02:41:52.040Z,15.64
2018-04-25T02:42:52.209Z,15.62
2018-04-25T02:43:52.382Z,15.50
2018-04-25T02:44:52.553Z,15.50
2018-04-25T02:45:52.727Z,15.43
2018-04-25T02:46:52.898Z,15.53
2018-04-25T02:47:53.063Z,15.57
2018-04-25T02:48:53.249Z,15.62
2018-04-25T02:49:53.402Z,15.62
2018-04-25T02:50:53.571Z,15.72
2018-04-25T02:51:53.746Z,15.65
2018-04-25T02:52:53.920Z,15.78
2018-04-25T02:53:54.097Z,15.82
2018-04-25T02:54:54.258Z,15.93
2018-04-25T02:55:54.426Z,16.00
2018-04-25T02:56:54.591Z,16.07
2018-04-25T02:57:54.757Z,16.08
2018-04-25T02:58:54.935Z,16.20
2018-04-25T02:59:55.093Z,16.23
2018-04-25T03:00:55.263Z,16.17
2018-04-25T03:01:55.431Z,16.30
2018-04-25T03:02:55.605Z,16.21
2018-04-25T03:03:55.773Z,16.24
2018-04-25T03:04:55.941Z,16.27
2018-04-25T03:05:56.529Z,16.30
2018-04-25T03:06:56.837Z,16.23
2018-04-25T03:07:56.958Z,16.11
2018-04-25T03:08:56.813Z,16.14
2018-04-25T03:09:56.990Z,16.08
2018-04-25T03:10:57.258Z,16.11
2018-04-25T03:11:57.444Z,16.17
2018-04-25T03:12:57.621Z,16.11
2018-04-25T03:13:57.832Z,16.08
2018-04-25T03:14:57.922Z,16.12
2018-04-25T03:15:58.138Z,16.05
2018-04-25T03:16:58.151Z,16.02
2018-04-25T03:17:58.322Z,16.00
2018-04-25T03:18:58.567Z,15.92
2018-04-25T03:19:58.657Z,15.74
2018-04-25T03:20:58.826Z,15.80
2018-04-25T03:21:58.986Z,15.80
2018-04-25T03:22:59.159Z,15.82
2018-04-25T03:23:59.330Z,15.72
2018-04-25T03:24:59.499Z,15.83
2018-04-25T03:25:59.669Z,15.87
2018-04-25T03:26:59.839Z,15.80
2018-04-25T03:28:00.007Z,15.78
2018-04-25T03:29:00.178Z,15.89
2018-04-25T03:30:00.347Z,15.83
2018-04-25T03:31:00.515Z,15.89
2018-04-25T03:32:00.680Z,15.90
2018-04-25T03:33:00.856Z,15.83
2018-04-25T03:34:01.017Z,15.72
2018-04-25T03:35:01.181Z,15.71
2018-04-25T03:36:01.354Z,15.74
2018-04-25T03:37:01.522Z,15.64
2018-04-25T03:38:01.688Z,15.67
2018-04-25T03:39:01.863Z,15.74
2018-04-25T03:40:02.041Z,15.80
2018-04-25T03:41:02.229Z,15.74
2018-04-25T03:42:02.373Z,15.80
2018-04-25T03:43:02.536Z,15.75
2018-04-25T03:44:02.715Z,15.76
2018-04-25T03:45:02.883Z,15.78
2018-04-25T03:46:03.052Z,15.87
2018-04-25T03:47:03.223Z,15.96
2018-04-25T03:48:03.388Z,16.01
2018-04-25T03:49:03.563Z,16.08
2018-04-25T03:50:03.727Z,16.02
2018-04-25T03:51:03.903Z,16.05
2018-04-25T03:52:04.074Z,15.97
2018-04-25T03:53:04.249Z,16.04
2018-04-25T03:54:04.417Z,15.94
2018-04-25T03:55:04.584Z,16.02
2018-04-25T03:56:04.752Z,15.84
2018-04-25T03:57:04.918Z,15.90
2018-04-25T03:58:05.092Z,15.83
2018-04-25T03:59:05.297Z,15.82
2018-04-25T04:00:05.425Z,15.72
2018-04-25T04:01:05.593Z,15.82
2018-04-25T04:02:05.763Z,15.78
2018-04-25T04:03:05.927Z,15.74
2018-04-25T04:04:06.092Z,15.87
2018-04-25T04:05:06.277Z,15.78
2018-04-25T04:06:06.442Z,15.80
2018-04-25T04:07:06.618Z,15.75
2018-04-25T04:08:06.801Z,15.71
2018-04-25T04:09:06.965Z,15.71
2018-04-25T04:10:07.137Z,15.68
2018-04-25T04:11:07.308Z,15.75
2018-04-25T04:12:07.475Z,15.75
2018-04-25T04:13:07.646Z,15.74
2018-04-25T04:14:07.815Z,15.69
2018-04-25T04:15:07.994Z,15.67
2018-04-25T04:16:08.153Z,15.72
2018-04-25T04:17:08.328Z,15.69
2018-04-25T04:18:08.492Z,15.78
2018-04-25T04:19:08.666Z,15.74
2018-04-25T04:20:08.844Z,15.82
2018-04-25T04:21:09.012Z,15.74
2018-04-25T04:22:09.178Z,15.92
2018-04-25T04:23:09.352Z,15.84
2018-04-25T04:24:09.526Z,15.89
2018-04-25T04:25:09.695Z,15.96
2018-04-25T04:26:09.858Z,16.00
2018-04-25T04:27:10.027Z,16.04
2018-04-25T04:28:10.194Z,16.04
2018-04-25T04:29:10.358Z,16.21
2018-04-25T04:30:10.547Z,16.15
2018-04-25T04:31:10.699Z,16.21
2018-04-25T04:32:10.890Z,16.24
2018-04-25T04:33:11.061Z,16.28
2018-04-25T04:34:11.225Z,16.31
2018-04-25T04:35:11.394Z,16.34
2018-04-25T04:36:11.569Z,16.39
2018-04-25T04:37:11.743Z,16.48
2018-04-25T04:38:11.928Z,16.46
2018-04-25T04:39:12.896Z,16.50
2018-04-25T04:40:12.401Z,16.63
2018-04-25T04:41:12.504Z,16.67
2018-04-25T04:42:13.554Z,16.75
2018-04-25T04:43:12.962Z,16.83
2018-04-25T04:44:13.115Z,16.91
2018-04-25T04:45:13.182Z,16.91
2018-04-25T04:46:13.979Z,16.98
2018-04-25T04:47:13.405Z,16.98
2018-04-25T04:48:13.639Z,17.07
2018-04-25T04:49:13.633Z,17.14
2018-04-25T04:50:13.925Z,16.96
2018-04-25T04:51:14.158Z,17.04
2018-04-25T04:52:14.367Z,17.00
2018-04-25T04:53:14.442Z,17.04
2018-04-25T04:54:14.653Z,17.06
2018-04-25T04:55:14.840Z,17.00
2018-04-25T04:56:15.124Z,16.94
2018-04-25T04:57:15.219Z,16.98
2018-04-25T04:58:15.263Z,17.04
2018-04-25T04:59:15.290Z,17.08
2018-04-25T05:00:15.611Z,17.16
2018-04-25T05:01:15.623Z,17.25
2018-04-25T05:02:15.963Z,17.43
2018-04-25T05:03:16.212Z,17.34
2018-04-25T05:04:16.203Z,17.36
2018-04-25T05:05:16.531Z,17.55
2018-04-25T05:06:16.742Z,17.56
2018-04-25T05:07:16.705Z,17.75
2018-04-25T05:08:17.065Z,17.87
2018-04-25T05:09:16.965Z,17.86
2018-04-25T05:10:17.145Z,17.87
2018-04-25T05:11:17.315Z,17.93
2018-04-25T05:12:17.678Z,17.81
2018-04-25T05:13:17.893Z,17.86
2018-04-25T05:14:18.093Z,17.87
2018-04-25T05:15:18.129Z,17.89
2018-04-25T05:16:18.360Z,17.92
2018-04-25T05:17:18.640Z,17.93
2018-04-25T05:18:18.781Z,17.96
2018-04-25T05:19:18.774Z,17.86
2018-04-25T05:20:19.126Z,17.78
2018-04-25T05:21:19.126Z,17.95
2018-04-25T05:22:19.409Z,17.92
2018-04-25T05:23:19.596Z,17.89
2018-04-25T05:24:19.584Z,17.87
2018-04-25T05:25:19.745Z,17.84
2018-04-25T05:26:19.997Z,17.79
2018-04-25T05:27:20.045Z,17.81
2018-04-25T05:28:20.210Z,17.89
2018-04-25T05:29:20.382Z,17.84
2018-04-25T05:30:20.549Z,17.95
2018-04-25T05:31:20.723Z,17.84
2018-04-25T05:32:20.962Z,17.93
2018-04-25T05:33:21.135Z,17.90
2018-04-25T05:34:21.514Z,17.89
2018-04-25T05:35:21.563Z,17.87
2018-04-25T05:36:21.821Z,17.86
2018-04-25T05:37:22.391Z,17.93
2018-04-25T05:38:21.986Z,17.87
2018-04-25T05:39:22.159Z,17.77
2018-04-25T05:40:22.332Z,17.63
2018-04-25T05:41:22.498Z,17.70
2018-04-25T05:42:22.669Z,17.72
2018-04-25T05:43:23.039Z,17.66
2018-04-25T05:44:23.172Z,17.63
2018-04-25T05:45:23.170Z,17.64
2018-04-25T05:46:23.561Z,17.70
2018-04-25T05:47:23.511Z,17.71
2018-04-25T05:48:23.881Z,17.70
2018-04-25T05:49:23.808Z,17.77
2018-04-25T05:50:23.979Z,17.78
2018-04-25T05:51:24.157Z,17.79
2018-04-25T05:52:24.325Z,17.90
2018-04-25T05:53:24.498Z,18.03
2018-04-25T05:54:24.665Z,17.95
2018-04-25T05:55:24.847Z,18.05
2018-04-25T05:56:25.009Z,18.05
2018-04-25T05:57:25.183Z,18.03
2018-04-25T05:58:25.360Z,18.14
2018-04-25T05:59:25.522Z,18.17
2018-04-25T06:00:25.689Z,18.12
2018-04-25T06:01:25.860Z,18.17
2018-04-25T06:02:26.032Z,18.14
2018-04-25T06:03:26.203Z,18.15
2018-04-25T06:04:26.362Z,18.20
2018-04-25T06:05:26.532Z,18.12
2018-04-25T06:06:26.703Z,18.18
2018-04-25T06:07:26.870Z,18.14
2018-04-25T06:08:27.037Z,18.17
2018-04-25T06:09:27.204Z,18.18
2018-04-25T06:10:27.376Z,18.26
2018-04-25T06:11:27.576Z,18.35
2018-04-25T06:12:27.801Z,18.36
2018-04-25T06:13:27.919Z,18.33
2018-04-25T06:14:28.087Z,18.37
2018-04-25T06:15:28.258Z,18.20
2018-04-25T06:16:28.422Z,18.33
2018-04-25T06:17:28.601Z,18.30
2018-04-25T06:18:28.774Z,18.29
2018-04-25T06:19:28.941Z,18.27
2018-04-25T06:20:29.105Z,18.35
2018-04-25T06:21:29.286Z,18.36
2018-04-25T06:22:29.457Z,18.44
2018-04-25T06:23:29.627Z,18.35
2018-04-25T06:24:29.795Z,18.41
2018-04-25T06:25:29.971Z,18.32
2018-04-25T06:26:30.225Z,18.32
2018-04-25T06:27:30.306Z,18.30
2018-04-25T06:28:30.487Z,18.33
2018-04-25T06:29:30.660Z,18.50
2018-04-25T06:30:30.829Z,18.50
2018-04-25T06:31:30.992Z,18.58
2018-04-25T06:32:31.171Z,18.60
2018-04-25T06:33:31.336Z,18.62
2018-04-25T06:34:31.507Z,18.70
2018-04-25T06:35:31.677Z,18.75
2018-04-25T06:36:31.845Z,18.82
2018-04-25T06:37:32.020Z,18.94
2018-04-25T06:38:32.197Z,18.88
2018-04-25T06:39:32.405Z,18.98
2018-04-25T06:40:32.539Z,19.02
2018-04-25T06:41:32.716Z,19.02
2018-04-25T06:42:32.885Z,18.98
2018-04-25T06:43:33.055Z,18.98
2018-04-25T06:44:33.227Z,19.02
2018-04-25T06:45:33.448Z,19.08
2018-04-25T06:46:33.498Z,19.07
2018-04-25T06:47:33.668Z,19.21
2018-04-25T06:48:33.836Z,19.18
2018-04-25T06:49:34.010Z,19.31
2018-04-25T06:50:34.207Z,19.23
2018-04-25T06:51:34.347Z,19.04
2018-04-25T06:52:34.531Z,19.04
2018-04-25T06:53:34.695Z,19.00
2018-04-25T06:54:34.868Z,18.95
2018-04-25T06:55:35.034Z,19.02
2018-04-25T06:56:35.201Z,18.91
2018-04-25T06:57:35.377Z,18.91
2018-04-25T06:58:35.542Z,18.90
2018-04-25T06:59:35.711Z,18.98
2018-04-25T07:00:35.875Z,19.07
2018-04-25T07:01:36.048Z,19.11
2018-04-25T07:02:36.215Z,19.19
2018-04-25T07:03:36.388Z,19.14
2018-04-25T07:04:36.562Z,19.04
2018-04-25T07:05:36.734Z,19.16
2018-04-25T07:06:36.900Z,19.13
2018-04-25T07:07:37.063Z,19.14
2018-04-25T07:08:37.227Z,19.04
2018-04-25T07:09:37.403Z,19.06
2018-04-25T07:10:37.570Z,19.02
2018-04-25T07:11:37.737Z,18.94
2018-04-25T07:12:37.911Z,19.13
2018-04-25T07:13:38.086Z,19.00
2018-04-25T07:14:38.258Z,18.95
2018-04-25T07:15:38.427Z,19.02
2018-04-25T07:16:38.593Z,19.04
2018-04-25T07:17:38.775Z,19.08
2018-04-25T07:18:38.938Z,19.18
2018-04-25T07:19:39.108Z,19.08
2018-04-25T07:20:39.272Z,19.00
2018-04-25T07:21:39.457Z,18.88
2018-04-25T07:22:39.623Z,19.11
2018-04-25T07:23:39.791Z,19.07
2018-04-25T07:24:39.966Z,18.92
2018-04-25T07:25:40.132Z,18.88
2018-04-25T07:26:40.307Z,18.81
2018-04-25T07:27:40.477Z,18.85
2018-04-25T07:28:40.649Z,19.06
2018-04-25T07:29:40.817Z,19.02
2018-04-25T07:30:40.984Z,18.95
2018-04-25T07:31:41.150Z,18.98
2018-04-25T07:32:41.322Z,18.82
2018-04-25T07:33:41.495Z,18.90
2018-04-25T07:34:41.671Z,18.90
2018-04-25T07:35:41.831Z,18.99
2018-04-25T07:36:42.003Z,18.95
2018-04-25T07:37:42.170Z,18.99
2018-04-25T07:38:42.340Z,19.08
2018-04-25T07:39:42.511Z,19.07
2018-04-25T07:40:42.691Z,18.99
2018-04-25T07:41:42.914Z,19.08
2018-04-25T07:42:43.027Z,19.13
2018-04-25T07:43:43.200Z,19.14
2018-04-25T07:44:43.369Z,19.26
2018-04-25T07:45:43.542Z,19.31
2018-04-25T07:46:43.715Z,19.25
2018-04-25T07:47:43.883Z,19.18
2018-04-25T07:48:44.060Z,19.31
2018-04-25T07:49:44.238Z,19.31
2018-04-25T07:50:44.410Z,19.48
2018-04-25T07:51:44.577Z,19.39
2018-04-25T07:52:44.759Z,19.50
2018-04-25T07:53:44.921Z,19.66
2018-04-25T07:54:45.101Z,19.65
2018-04-25T07:55:45.264Z,19.80
2018-04-25T07:56:45.433Z,19.80
2018-04-25T07:57:45.616Z,19.78
2018-04-25T07:58:45.769Z,19.81
2018-04-25T07:59:45.959Z,19.81
2018-04-25T08:00:46.131Z,19.62
2018-04-25T08:01:46.302Z,19.47
2018-04-25T08:02:46.476Z,19.54
2018-04-25T08:03:46.647Z,19.62
2018-04-25T08:04:46.893Z,19.65
2018-04-25T08:05:46.946Z,19.63
2018-04-25T08:06:47.116Z,19.69
2018-04-25T08:07:47.304Z,19.76
2018-04-25T08:08:47.472Z,19.80
2018-04-25T08:09:47.738Z,19.74
2018-04-25T08:10:47.805Z,19.78
2018-04-25T08:11:47.977Z,19.73
2018-04-25T08:12:48.161Z,19.86
2018-04-25T08:13:48.333Z,19.83
2018-04-25T08:14:48.503Z,19.69
2018-04-25T08:15:48.674Z,19.66
2018-04-25T08:16:48.849Z,19.76
2018-04-25T08:17:49.030Z,19.95
2018-04-25T08:18:49.200Z,20.13
2018-04-25T08:19:49.368Z,20.33
2018-04-25T08:20:49.540Z,20.51
2018-04-25T08:21:49.708Z,20.76
2018-04-25T08:22:49.880Z,20.70
2018-04-25T08:23:50.074Z,20.85
2018-04-25T08:24:50.225Z,20.98
2018-04-25T08:25:50.395Z,20.70
2018-04-25T08:26:50.569Z,21.07
2018-04-25T08:27:50.743Z,20.70
2018-04-25T08:28:50.920Z,20.79
2018-04-25T08:29:51.087Z,20.72
2018-04-25T08:30:51.267Z,20.88
2018-04-25T08:31:51.450Z,21.07
2018-04-25T08:32:51.610Z,21.35
2018-04-25T08:33:51.785Z,21.77
2018-04-25T08:34:51.959Z,21.86
2018-04-25T08:35:52.126Z,22.09
2018-04-25T08:36:52.298Z,22.45
2018-04-25T08:37:52.465Z,22.28
2018-04-25T08:38:52.636Z,22.42
2018-04-25T08:39:52.807Z,22.35
2018-04-25T08:40:52.987Z,22.65
2018-04-25T08:41:53.165Z,22.68
2018-04-25T08:42:53.335Z,22.51
2018-04-25T08:43:53.514Z,22.07
2018-04-25T08:44:53.770Z,21.65
2018-04-25T08:45:53.875Z,21.46
2018-04-25T08:46:54.045Z,21.43
2018-04-25T08:47:54.225Z,21.09
2018-04-25T08:48:54.405Z,20.57
2018-04-25T08:49:54.573Z,20.66
2018-04-25T08:50:54.741Z,20.70
2018-04-25T08:51:54.914Z,20.57
2018-04-25T08:52:55.099Z,20.54
2018-04-25T08:53:55.269Z,20.57
2018-04-25T08:54:55.445Z,20.58
2018-04-25T08:55:55.623Z,20.50
2018-04-25T08:56:55.795Z,20.74
2018-04-25T08:57:55.975Z,20.58
2018-04-25T08:58:56.150Z,20.61
2018-04-25T08:59:56.317Z,20.67
2018-04-25T09:00:56.493Z,20.58
2018-04-25T09:01:56.667Z,20.54
2018-04-25T09:02:56.837Z,20.43
2018-04-25T09:03:57.010Z,20.51
2018-04-25T09:04:57.179Z,20.29
2018-04-25T09:05:57.361Z,20.26
2018-04-25T09:06:57.525Z,20.38
2018-04-25T09:07:57.709Z,20.42
2018-04-25T09:08:57.873Z,20.35
2018-04-25T09:09:58.046Z,20.26
2018-04-25T09:10:58.229Z,20.06
2018-04-25T09:11:58.400Z,20.03
2018-04-25T09:12:58.595Z,19.98
2018-04-25T09:13:58.764Z,19.92
2018-04-25T09:14:58.927Z,19.87
2018-04-25T09:15:59.104Z,20.05
2018-04-25T09:16:59.275Z,20.20
2018-04-25T09:17:59.444Z,20.47
2018-04-25T09:18:59.617Z,20.59
2018-04-25T09:19:59.795Z,20.70
2018-04-25T09:20:59.968Z,20.95
2018-04-25T09:22:00.151Z,21.16
2018-04-25T09:23:00.315Z,21.35
2018-04-25T09:24:00.481Z,21.34
2018-04-25T09:25:00.654Z,21.56
2018-04-25T09:26:00.838Z,21.88
2018-04-25T09:27:01.000Z,22.00
2018-04-25T09:28:01.179Z,21.88
2018-04-25T09:29:01.342Z,21.62
2018-04-25T09:30:01.516Z,21.37
2018-04-25T09:31:01.693Z,21.21
2018-04-25T09:32:01.864Z,20.98
2018-04-25T09:33:02.034Z,20.62
2018-04-25T09:34:02.203Z,20.59
2018-04-25T09:35:02.379Z,20.39
2018-04-25T09:36:02.551Z,20.20
2018-04-25T09:37:02.728Z,20.16
2018-04-25T09:38:02.900Z,19.98
2018-04-25T09:39:03.064Z,19.98
2018-04-25T09:40:03.238Z,19.83
2018-04-25T09:41:03.408Z,19.86
2018-04-25T09:42:03.582Z,19.81
2018-04-25T09:43:03.757Z,19.87
2018-04-25T09:44:03.927Z,19.73
2018-04-25T09:45:04.104Z,19.69
2018-04-25T09:46:04.342Z,19.83
2018-04-25T09:47:04.441Z,19.47
2018-04-25T09:48:04.615Z,19.44
2018-04-25T09:49:04.791Z,19.41
2018-04-25T09:50:04.951Z,19.44
2018-04-25T09:51:05.119Z,19.50
2018-04-25T09:52:05.287Z,19.51
2018-04-25T09:53:05.457Z,19.51
2018-04-25T09:54:05.632Z,19.61
2018-04-25T09:55:05.808Z,19.63
2018-04-25T09:56:05.981Z,19.95
2018-04-25T09:57:06.148Z,20.39
2018-04-25T09:58:06.324Z,21.01
2018-04-25T09:59:06.485Z,21.21
2018-04-25T10:00:06.667Z,21.68
2018-04-25T10:01:06.823Z,21.79
2018-04-25T10:02:06.995Z,21.50
2018-04-25T10:03:07.179Z,21.32
2018-04-25T10:04:07.372Z,21.03
2018-04-25T10:05:07.519Z,21.12
2018-04-25T10:06:07.694Z,21.31
2018-04-25T10:07:07.864Z,23.19
2018-04-25T10:08:08.043Z,22.80
2018-04-25T10:09:08.216Z,22.77
2018-04-25T10:10:08.409Z,23.05
2018-04-25T10:11:08.587Z,23.04
2018-04-25T10:12:08.760Z,23.88
2018-04-25T10:13:08.928Z,23.91
2018-04-25T10:14:09.104Z,24.32
2018-04-25T10:15:09.287Z,24.83
2018-04-25T10:16:09.453Z,25.50
2018-04-25T10:17:09.648Z,27.19
2018-04-25T10:18:09.806Z,27.65
2018-04-25T10:19:09.983Z,28.30
2018-04-25T10:20:10.191Z,28.67
2018-04-25T10:21:10.364Z,27.22
2018-04-25T10:22:10.535Z,26.91
2018-04-25T10:23:10.732Z,26.63
2018-04-25T10:24:10.888Z,27.78
2018-04-25T10:25:11.069Z,28.15
2018-04-25T10:26:11.241Z,26.48
2018-04-25T10:27:11.425Z,25.60
2018-04-25T10:28:11.602Z,25.38
2018-04-25T10:29:11.779Z,25.36
2018-04-25T10:30:11.953Z,24.96
2018-04-25T10:31:12.145Z,24.35
2018-04-25T10:32:12.343Z,23.80
2018-04-25T10:33:12.516Z,24.50
2018-04-25T10:34:12.696Z,24.85
2018-04-25T10:35:12.877Z,26.58
2018-04-25T10:36:13.056Z,27.79
2018-04-25T10:37:13.234Z,28.58
2018-04-25T10:38:13.413Z,27.72
2018-04-25T10:39:13.594Z,27.00
2018-04-25T10:40:13.774Z,26.73
2018-04-25T10:41:13.955Z,27.84
2018-04-25T10:42:14.135Z,27.37
2018-04-25T10:43:14.311Z,26.30
2018-04-25T10:44:14.538Z,25.43
2018-04-25T10:45:14.664Z,25.10
2018-04-25T10:46:14.845Z,24.52
2018-04-25T10:47:15.021Z,23.42
2018-04-25T10:48:15.207Z,23.23
2018-04-25T10:49:15.397Z,22.92
2018-04-25T10:50:15.576Z,22.91
2018-04-25T10:51:15.752Z,22.64
2018-04-25T10:52:15.930Z,22.31
2018-04-25T10:53:16.110Z,22.35
2018-04-25T10:54:16.288Z,22.14
2018-04-25T10:55:16.542Z,22.00
2018-04-25T10:56:16.639Z,23.70
2018-04-25T10:57:16.821Z,23.25
2018-04-25T10:58:16.991Z,22.88
2018-04-25T10:59:17.165Z,22.64
2018-04-25T11:00:17.340Z,22.37
2018-04-25T11:01:17.508Z,22.22
2018-04-25T11:02:17.697Z,22.05
2018-04-25T11:03:17.877Z,22.10
2018-04-25T11:04:18.056Z,21.82
2018-04-25T11:05:18.228Z,21.54
2018-04-25T11:06:18.407Z,21.49
2018-04-25T11:07:18.603Z,20.95
2018-04-25T11:08:18.781Z,20.59
2018-04-25T11:09:18.925Z,20.32
2018-04-25T11:10:19.092Z,20.18
2018-04-25T11:11:19.269Z,19.92
2018-04-25T11:12:19.453Z,19.69
2018-04-25T11:13:19.630Z,19.50
2018-04-25T11:14:19.800Z,19.04
2018-04-25T11:15:19.972Z,18.47
2018-04-25T11:16:20.158Z,18.50
2018-04-25T11:17:20.331Z,18.37
2018-04-25T11:18:20.501Z,18.75
2018-04-25T11:19:20.668Z,21.07
2018-04-25T11:20:20.890Z,23.05
2018-04-25T11:21:21.015Z,23.85
2018-04-25T11:22:21.190Z,23.70
2018-04-25T11:23:21.367Z,23.23
2018-04-25T11:24:21.539Z,22.02
2018-04-25T11:25:21.715Z,21.49
2018-04-25T11:26:21.891Z,21.28
2018-04-25T11:27:22.065Z,20.82
2018-04-25T11:28:22.231Z,20.82
2018-04-25T11:29:22.410Z,20.43
2018-04-25T11:30:22.585Z,20.02
2018-04-25T11:31:22.751Z,19.69
2018-04-25T11:32:22.929Z,19.26
2018-04-25T11:33:23.102Z,19.28
2018-04-25T11:34:23.273Z,19.50
2018-04-25T11:35:23.465Z,19.18
2018-04-25T11:36:23.657Z,18.99
2018-04-25T11:37:23.832Z,18.65
2018-04-25T11:38:24.009Z,18.55
2018-04-25T11:39:24.189Z,18.60
2018-04-25T11:40:24.361Z,18.69
2018-04-25T11:41:24.526Z,18.52
2018-04-25T11:42:24.700Z,19.18
2018-04-25T11:43:24.877Z,19.40
2018-04-25T11:44:25.041Z,20.66
2018-04-25T11:45:25.216Z,20.79
2018-04-25T11:46:25.388Z,20.54
2018-04-25T11:47:25.566Z,20.01
2018-04-25T11:48:25.737Z,20.08
2018-04-25T11:49:25.900Z,19.69
2018-04-25T11:50:26.082Z,19.26
2018-04-25T11:51:26.254Z,19.18
2018-04-25T11:52:26.433Z,19.28
2018-04-25T11:53:26.597Z,19.31
2018-04-25T11:54:26.765Z,19.28
2018-04-25T11:55:26.940Z,19.06
2018-04-25T11:56:27.111Z,19.00
2018-04-25T11:57:27.279Z,18.78
2018-04-25T11:58:27.451Z,18.75
2018-04-25T11:59:28.396Z,18.70
2018-04-25T12:00:27.825Z,18.60
2018-04-25T12:01:27.994Z,18.62
2018-04-25T12:02:28.162Z,18.69
2018-04-25T12:03:28.320Z,18.73
2018-04-25T12:04:28.521Z,18.87
2018-04-25T12:05:28.687Z,19.23
2018-04-25T12:06:28.861Z,19.55
2018-04-25T12:07:29.031Z,19.46
2018-04-25T12:08:29.231Z,19.76
2018-04-25T12:09:29.405Z,21.99
2018-04-25T12:10:29.595Z,24.02
2018-04-25T12:11:29.765Z,25.21
2018-04-25T12:12:29.938Z,26.33
2018-04-25T12:13:30.118Z,27.70
2018-04-25T12:14:30.288Z,28.19
2018-04-25T12:15:30.462Z,26.81
2018-04-25T12:16:30.638Z,27.10
2018-04-25T12:17:30.816Z,25.42
2018-04-25T12:18:30.994Z,24.18
2018-04-25T12:19:31.167Z,23.83
2018-04-25T12:20:31.341Z,23.07
2018-04-25T12:21:31.522Z,22.02
2018-04-25T12:22:31.704Z,22.09
2018-04-25T12:23:31.873Z,22.00
2018-04-25T12:24:32.052Z,21.79
2018-04-25T12:25:32.228Z,21.37
2018-04-25T12:26:32.403Z,21.50
2018-04-25T12:27:32.574Z,21.44
2018-04-25T12:28:32.755Z,21.47
2018-04-25T12:29:32.946Z,21.34
2018-04-25T12:30:33.097Z,21.19
2018-04-25T12:31:33.274Z,20.69
2018-04-25T12:32:33.442Z,20.57
2018-04-25T12:33:33.617Z,20.48
2018-04-25T12:34:33.787Z,20.50
2018-04-25T12:35:33.970Z,20.32
2018-04-25T12:36:34.142Z,20.23
2018-04-25T12:37:34.322Z,19.98
2018-04-25T12:38:34.501Z,19.98
2018-04-25T12:39:34.673Z,20.03
2018-04-25T12:40:34.843Z,20.16
2018-04-25T12:41:35.093Z,20.23
2018-04-25T12:42:35.185Z,20.33
2018-04-25T12:43:35.357Z,20.32
2018-04-25T12:44:35.527Z,20.43
2018-04-25T12:45:35.706Z,20.26
2018-04-25T12:46:35.882Z,20.31
2018-04-25T12:47:36.057Z,20.16
2018-04-25T12:48:36.229Z,20.01
2018-04-25T12:49:36.400Z,20.17
2018-04-25T12:50:36.579Z,19.92
2018-04-25T12:51:36.746Z,19.81
2018-04-25T12:52:36.923Z,19.87
2018-04-25T12:53:37.095Z,19.92
2018-04-25T12:54:37.273Z,19.98